WEATHER DATA

YESTERDAY
Time Temp. Dewp. Hum. Wind dir Wind speed Wind gust Bar. 1h Prec. 24h Prec.
00:04 15.3 10.3 72 90 0.3 0.8 1017.2 0.0000 0.0000
00:13 15.2 10.2 72 50 0.3 0.8 1017.2 0.0000 0.0000
00:29 15.1 10.3 73 90 0.3 0.8 1017.3 0.0000 0.0000
00:49 15 10.4 74 90 0.3 0.6 1017.3 0.0000 0.0000
00:59 15 10.4 74 45 0.3 0.6 1017.3 0.0000 0.0000
01:09 14.9 10.5 75 52 0.3 0.8 1017.2 0.0000 0.0000
01:24 14.7 10.3 75 56 0.3 0.6 1017.2 0.0000 0.0000
01:34 14.4 10 75 90 0.3 0.6 1017.2 0.0000 0.0000
01:44 14.2 10 76 57 0.3 0.6 1017.2 0.0000 0.0000
01:54 13.9 9.7 76 53 0.3 0.6 1017.1 0.0000 0.0000
02:04 13.7 9.7 77 18 0.6 0.8 1017.1 0.0000 0.0000
02:14 13.5 9.6 77 0 0.6 1017 0.0000 0.0000
02:24 13.3 9.5 78 8 0.3 0.8 1017 0.0000 0.0000
02:34 13.1 9.4 78 15 0.8 1.4 1017 0.0000 0.0000
02:44 13 9.4 79 59 0.3 0.8 1017.1 0.0000 0.0000
02:54 12.7 9.2 79 5 0.3 0.6 1017.1 0.0000 0.0000
03:04 12.5 9 79 12 0.3 0.6 1017.2 0.0000 0.0000
03:14 12.4 8.9 79 37 0.3 0.8 1017.2 0.0000 0.0000
03:24 12.2 8.9 80 16 0.3 0.8 1017.3 0.0000 0.0000
03:34 12.1 8.9 81 9 0.3 0.6 1017.3 0.0000 0.0000
03:45 11.9 8.7 81 10 0.6 1.1 1017.3 0.0000 0.0000
03:54 11.9 8.7 81 0 0.6 1017.2 0.0000 0.0000
04:14 11.9 8.9 82 21 0.3 0.8 1017.4 0.0000 0.0000
04:25 11.9 9.1 83 18 0.3 0.8 1017.4 0.0000 0.0000
04:34 11.8 9 83 8 0.6 0.8 1017.4 0.0000 0.0000
04:44 11.8 9 83 12 0.8 1.7 1017.4 0.0000 0.0000
04:55 11.8 9 83 33 0.3 0.8 1017.4 0.0000 0.0000
05:05 11.8 9 83 0 0.6 1017.4 0.0000 0.0000
05:14 11.7 9.1 84 26 0.3 0.6 1017.4 0.0000 0.0000
05:25 11.7 9.1 84 8 0.8 1.4 1017.4 0.0000 0.0000
05:35 11.8 9.4 85 90 0.3 0.8 1017.4 0.0000 0.0000
05:54 11.9 9.5 85 7 0.8 1.4 1017.3 0.0000 0.0000
06:05 12 9.6 85 25 0.6 1.1 1017.2 0.0000 0.0000
06:29 12.1 9.7 85 26 0.3 0.8 1017.1 0.0000 0.0000
06:49 12 9.6 85 124 0.3 0.8 1017.3 0.0000 0.0000
06:59 11.9 9.5 85 22 0.3 0.8 1017.4 0.0000 0.0000
07:15 12 9.7 86 11 0.6 1.4 1017.4 0.0000 0.0000
07:30 12.4 10.1 86 90 0.3 0.8 1017.4 0.0000 0.0000
07:39 12.5 10.4 87 22 0.3 0.8 1017.5 0.0000 0.0000
08:00 13 10.7 86 55 0.6 1.1 1017.6 0.0000 0.0000
08:09 13.4 11.1 86 183 0.8 1.4 1017.6 0.0000 0.0000
08:20 13.6 11.1 85 212 0.6 0.8 1017.7 0.0000 0.0000
08:30 14 11.3 84 201 0.6 1.1 1017.6 0.0000 0.0000
08:40 14.3 11.5 83 237 0.3 0.8 1017.7 0.0000 0.0000
08:50 14.5 11.5 82 270 0.3 0.6 1017.8 0.0000 0.0000
09:00 14.8 11.8 82 18 0.6 1.7 1018.1 0.0000 0.0000
09:10 14.9 11.9 82 349 0.8 1.4 1018.4 0.0000 0.0000
09:20 15.1 12.2 83 1 0.8 1.7 1018.7 0.0000 0.0000
09:30 15.2 12.5 84 348 0.8 1.7 1018.7 0.2020 0.2020
09:40 15.4 12.9 85 5 0.6 1.4 1018.6 0.2020 0.2020
09:50 15.6 13.1 85 12 0.6 1.1 1018.5 0.2020 0.2020
10:01 15.8 13.3 85 12 0.3 0.8 1018.5 0.2020 0.2020
10:10 16.2 13.5 84 17 0.8 1.7 1018.6 0.2020 0.2020
10:20 16.5 13 80 27 0.8 1.7 1018.7 0.0000 0.2020
10:30 16.7 13 79 299 0.6 1.1 1018.7 0.0000 0.2020
10:41 17.1 13.2 78 315 0.8 2.2 1018.8 0.0000 0.2020
10:50 17.4 13.1 76 350 0.8 2.2 1018.9 0.0000 0.2020
11:00 17.7 13 74 281 1.1 3.3 1018.9 0.0000 0.2020
11:16 18.1 13.2 73 5 1.4 2.5 1019 0.0000 0.2020
11:35 19.3 13.7 70 9 1.1 2.8 1019.3 0.0000 0.2020
11:46 19.7 13.6 68 338 1.1 4.2 1019.2 0.0000 0.2020
11:56 20 13.2 65 344 1.9 4.7 1019.1 0.0000 0.2020
12:06 20.1 13.3 65 10 1.4 3.1 1019.2 0.0000 0.2020
12:16 20.7 13.2 62 303 1.7 5 1019.3 0.0000 0.2020
12:26 20.7 13.2 62 132 1.1 3.1 1019.1 0.0000 0.2020
12:36 20.7 13.2 62 10 1.4 2.8 1019 0.0000 0.2020
12:46 21 13.4 62 346 0.8 1.9 1019 0.0000 0.2020
12:56 20.9 12.9 60 225 1.4 5 1018.9 0.0000 0.2020
13:11 21 12.4 58 332 1.7 4.2 1018.8 0.0000 0.2020
13:21 21.3 12.7 58 220 1.1 3.9 1018.7 0.0000 0.2020
13:32 21.6 12.5 56 318 0.8 3.3 1018.6 0.0000 0.2020
13:41 21.8 12.6 56 338 1.9 3.9 1018.5 0.0000 0.2020
13:51 22 12.3 54 282 1.1 3.3 1018.6 0.0000 0.2020
14:07 22.5 12.5 53 284 1.4 4.2 1018.5 0.0000 0.2020
14:17 22.4 12.9 55 172 1.9 4.4 1018.4 0.0000 0.2020
14:26 22.4 12.4 53 101 1.4 3.1 1018.1 0.0000 0.2020
14:36 22.7 12.3 52 342 1.9 5.3 1018.1 0.0000 0.2020
14:47 22.9 12.5 52 0 1.1 3.9 1017.9 0.0000 0.2020
14:57 22.8 12.1 51 333 1.4 3.1 1017.7 0.0000 0.2020
15:06 22.7 12.1 51 235 1.4 3.3 1017.8 0.0000 0.2020
15:17 22.5 12.2 52 186 1.1 3.6 1017.7 0.0000 0.2020
15:27 22.7 12.3 52 195 1.1 3.6 1017.6 0.0000 0.2020
15:37 22.3 12 52 170 1.9 5 1017.6 0.0000 0.2020
15:47 22 12 53 2 1.7 3.6 1017.7 0.0000 0.2020
15:57 21.5 10.3 49 323 1.1 5 1018.1 0.0000 0.2020
16:07 20.6 9.5 49 334 1.1 2.8 1018.3 0.0000 0.2020
16:16 19.9 9.8 52 15 1.9 3.1 1018.3 0.0000 0.2020
16:27 19.3 9.8 54 24 1.1 2.2 1018.3 0.0000 0.2020
16:37 18.7 10 57 178 0.8 1.9 1017.9 0.0000 0.2020
16:47 18.4 10.8 61 6 0.6 1.4 1017.7 0.0000 0.2020
16:57 18.3 11.1 63 1 0.8 3.1 1017.7 0.0000 0.2020
17:07 18.4 11.5 64 5 0.6 1.1 1017.8 0.0000 0.2020
17:17 18.8 12.1 65 0 0.8 1.9 1017.9 0.0000 0.2020
17:27 19.2 12.5 65 6 1.1 2.5 1018.1 0.0000 0.2020
17:37 19.5 12.5 64 17 0.8 2.5 1018.1 0.0000 0.2020
17:47 20.6 12.8 61 315 0.8 2.2 1018.1 0.0000 0.2020
17:57 21.5 12.4 56 176 0.8 2.5 1018.1 0.0000 0.2020
18:08 21.4 12.5 57 148 0.8 2.8 1018.1 0.0000 0.2020
18:17 21.1 13 60 149 1.4 2.8 1018.1 0.0000 0.2020
18:27 21.5 13.2 59 150 0.8 1.9 1018.1 0.0000 0.2020
18:37 21.7 12.8 57 324 1.4 3.3 1018.1 0.0000 0.2020
18:47 22 12.8 56 292 0.8 1.7 1018.3 0.0000 0.2020
18:57 21.7 12.5 56 214 0.8 2.5 1018.5 0.0000 0.2020
19:07 20.9 12.6 59 90 0.6 1.1 1018.6 0.0000 0.2020
19:27 19.9 12.7 63 181 0.6 1.1 1018.8 0.0000 0.2020
19:37 19.4 12.4 64 173 0.3 0.8 1018.8 0.0000 0.2020
19:48 18.9 12.4 66 90 0.3 0.8 1018.8 0.0000 0.2020
19:58 18.5 12.9 70 23 0.6 1.1 1018.8 0.1010 0.3030
20:07 18.2 13.3 73 247 0.6 1.4 1019.1 0.1010 0.3030
20:17 17.8 13.1 74 20 0.8 1.9 1019.2 0.1010 0.3030
20:28 17.4 13.1 76 41 0.3 1.1 1019.3 0.1010 0.3030
20:38 17 12.9 77 8 0.6 1.1 1019.3 0.1010 0.3030
20:47 16.7 12.8 78 347 1.1 1.9 1019.4 0.1010 0.3030
20:58 16.4 12.9 80 198 0.3 0.6 1019.4 0.0000 0.3030
21:08 15.9 12.3 79 11 0.3 0.6 1019.6 0.0000 0.3030
21:18 15.6 12 79 90 0.3 0.6 1019.6 0.0000 0.3030
21:28 15.1 11.7 80 4 0.3 0.6 1019.7 0.0000 0.3030
21:38 14.7 11.5 81 315 0.3 0.6 1019.8 0.0000 0.3030
21:53 14.2 11.2 82 1 0.6 1.4 1019.9 0.1010 0.4040
22:03 13.9 10.9 82 0 0.8 1.4 1020 0.1010 0.4040
22:10 13.7 10.7 82 3 0.8 1.4 1020.1 0.1010 0.4040
22:20 13.5 10.7 83 37 0.3 0.6 1020.2 0.1010 0.4040
22:36 13.1 10.5 84 356 0.6 1.1 1020.3 0.1010 0.4040
22:46 12.9 10.4 85 352 0.6 1.1 1020.4 0.0000 0.4040
22:55 12.9 10.4 85 4 0.6 1.1 1020.4 0.0000 0.4040
23:06 12.8 10.5 86 8 0.3 0.8 1020.5 0.0000 0.4040
23:16 12.7 10.4 86 355 0.8 1.1 1020.5 0.0000 0.4040
23:26 12.6 10.3 86 15 0.6 1.1 1020.5 0.0000 0.4040
23:36 12.5 10.2 86 6 0.6 1.1 1020.6 0.0000 0.4040
23:46 12.3 10 86 90 0.3 0.6 1020.7 0.0000 0.4040
23:56 12.2 9.9 86 358 0.6 0.8 1020.8 0.0000

DAY STATISTIC

2018-04-23
TEMPERATURE
AVERAGE
16.5
HIGH
22.9
14:47
LOW
11.7
05:14
PRESSURE
AVERAGE
1018.3
HIGH
1020.8
23:56
LOW
1017.0
02:14
DEWPOINT
AVERAGE
11.3
HIGH
13.7
11:35
LOW
8.7
03:45
HUMIDITY
AVERAGE
73
HIGH
87
07:39
LOW
49
15:57
WIND SPEED
AVERAGE
0.7
HIGH
1.9
11:56
WIND GUST
AVERAGE
1.8
HIGH
5.3
14:36
WIND DIRECTION
PREVAILING
N
45.8%
N
45.8
NE
13.7
E
8.4
SE
3.8
S
8.4
SW
5.3
W
3.8
NW
8.4
PRECIPITATION
RAIN HOUR
0.2
RAIN DAY
0.4
TEMPERATURE (°C)
LOW
11.7
HIGH
22.9
AVERAGE
16.5
PRESSURE (hpa)
LOW
1017.0
HIGH
1020.8
AVERAGE
1018.3
DEVICE